Time;durP1;ratioP1;P1;durP2;ratioP2;P2;SDS_P1;SDS_P2;PMS_P1;PMS_P2;Temp;Humidity;BMP_temperature;BMP_pressure;BME280_temperature;BME280_humidity;BME280_pressure;Samples;Min_cycle;Max_cycle;Signal;HPM_P1;HPM_P2
2023/07/02 00:00:28;;;;;;;25.35;11.35;;;19.40;99.90;;;19.60;72.45;100632.56;5055254;28;19994;-69
2023/07/02 00:02:57;;;;;;;25.52;11.50;;;19.30;99.90;;;19.55;71.20;100626.53;5056538;28;20057;-70
2023/07/02 00:05:25;;;;;;;23.83;11.65;;;19.20;99.90;;;19.39;69.02;100627.28;5056326;28;20486;-70
2023/07/02 00:07:54;;;;;;;21.13;11.38;;;19.10;99.90;;;19.47;68.14;100626.00;5056012;28;20073;-70
2023/07/02 00:10:22;;;;;;;25.05;12.57;;;19.20;99.90;;;19.55;66.40;100633.72;5055992;28;20048;-69
2023/07/02 00:12:52;;;;;;;23.40;12.32;;;19.20;99.90;;;19.42;66.58;100628.03;5056029;28;20102;-70
2023/07/02 00:15:20;;;;;;;24.10;12.00;;;19.20;99.90;;;19.53;66.38;100630.25;5056040;28;20452;-71
2023/07/02 00:17:49;;;;;;;25.92;11.88;;;19.20;99.90;;;19.48;66.55;100629.56;5056188;28;20079;-69
2023/07/02 00:20:19;;;;;;;23.63;11.27;;;19.20;99.90;;;19.54;67.62;100630.16;5055914;28;20454;-70
2023/07/02 00:22:49;;;;;;;20.55;11.82;;;19.20;99.90;;;19.46;68.02;100628.75;5055955;28;20053;-69
2023/07/02 00:25:17;;;;;;;30.10;12.57;;;19.10;99.90;;;19.44;67.70;100630.63;5055754;28;20090;-70
2023/07/02 00:27:46;;;;;;;28.98;11.77;;;19.10;99.90;;;19.41;67.76;100630.78;5055820;28;20161;-70
2023/07/02 00:30:16;;;;;;;26.02;12.30;;;19.10;99.90;;;19.50;67.56;100635.72;5055754;28;20068;-69
2023/07/02 00:32:44;;;;;;;29.10;13.02;;;19.10;99.90;;;19.45;67.44;100632.38;5056050;28;20040;-70
2023/07/02 00:35:13;;;;;;;27.83;12.27;;;19.10;99.90;;;19.39;67.69;100638.91;5055629;28;20472;-69
2023/07/02 00:37:41;;;;;;;28.75;14.18;;;19.10;99.90;;;19.48;67.04;100637.59;5052029;28;20041;-69
2023/07/02 00:40:11;;;;;;;26.00;12.90;;;19.10;99.90;;;19.39;66.95;100648.75;5055595;28;20072;-69
2023/07/02 00:42:39;;;;;;;27.20;12.63;;;19.10;99.90;;;19.28;67.26;100635.75;5055753;28;20565;-70
2023/07/02 00:45:09;;;;;;;31.40;12.80;;;19.00;99.90;;;19.27;65.96;100638.50;5055645;28;20128;-70
2023/07/02 00:47:39;;;;;;;25.80;12.68;;;19.00;99.90;;;19.21;66.34;100631.63;5055732;28;20053;-70
2023/07/02 00:50:09;;;;;;;27.77;13.03;;;18.90;99.90;;;19.39;65.81;100632.66;5071118;28;20142;-69
2023/07/02 00:52:38;;;;;;;34.63;14.77;;;19.00;99.90;;;19.31;65.75;100637.44;5055587;28;20056;-70
2023/07/02 00:55:08;;;;;;;29.95;13.00;;;19.00;99.90;;;19.16;64.52;100635.44;5055540;28;20049;-70
2023/07/02 00:57:37;;;;;;;28.73;13.23;;;18.90;99.90;;;19.28;63.89;100640.28;5055478;28;20053;-69
2023/07/02 01:00:07;;;;;;;28.88;12.95;;;18.90;99.90;;;19.13;62.48;100635.56;5055234;28;20049;-70
2023/07/02 01:02:36;;;;;;;26.15;11.70;;;18.90;99.90;;;19.19;62.35;100637.97;5055401;28;20061;-69
2023/07/02 01:05:06;;;;;;;21.60;11.85;;;18.90;99.90;;;19.16;61.54;100646.16;5054990;28;20128;-70
2023/07/02 01:07:34;;;;;;;26.70;12.43;;;18.80;99.90;;;19.24;61.65;100647.56;5055097;28;20045;-70
2023/07/02 01:10:03;;;;;;;33.30;13.20;;;18.90;99.90;;;19.21;62.26;100649.50;5053961;28;20110;-69
2023/07/02 01:12:32;;;;;;;26.90;12.50;;;18.90;99.90;;;18.96;62.42;100647.00;5053632;28;20060;-68
2023/07/02 01:15:04;;;;;;;27.20;11.98;;;18.70;99.90;;;19.12;61.43;100642.75;5054946;28;20131;-69
2023/07/02 01:17:39;;;;;;;28.02;12.10;;;18.70;99.90;;;18.95;62.27;100647.94;5051422;28;20508;-69
2023/07/02 01:20:12;;;;;;;28.63;12.18;;;18.70;99.90;;;18.96;61.92;100640.75;5062165;28;20080;-69
2023/07/02 01:22:41;;;;;;;29.10;12.75;;;18.60;99.90;;;19.09;62.38;100645.53;5069678;28;20046;-70
2023/07/02 01:25:10;;;;;;;26.27;13.00;;;18.70;99.90;;;19.10;61.38;100643.75;5054854;28;20048;-70
2023/07/02 01:27:39;;;;;;;23.85;11.90;;;18.70;99.90;;;19.00;61.74;100651.31;5054912;28;20110;-69
2023/07/02 01:30:10;;;;;;;29.27;12.75;;;18.60;99.90;;;18.95;60.97;100653.28;5049722;28;20051;-70
2023/07/02 01:32:40;;;;;;;29.60;12.60;;;18.60;99.90;;;19.04;61.34;100644.00;5050425;28;20485;-69
2023/07/02 01:35:10;;;;;;;27.38;12.38;;;18.60;99.90;;;19.11;61.15;100648.16;5054777;28;20068;-69
2023/07/02 01:37:39;;;;;;;25.27;12.35;;;18.70;99.90;;;19.11;61.23;100643.66;5054869;28;20448;-69
2023/07/02 01:40:09;;;;;;;27.33;12.05;;;18.80;99.90;;;19.07;61.48;100642.06;5070211;28;20063;-69
2023/07/02 01:42:38;;;;;;;33.35;12.75;;;18.70;99.90;;;19.11;61.61;100645.47;5054522;28;20048;-69
2023/07/02 01:45:08;;;;;;;33.42;13.30;;;18.70;99.90;;;19.17;61.23;100654.13;5053294;28;20549;-69
2023/07/02 01:47:37;;;;;;;26.52;12.57;;;18.80;99.90;;;19.23;61.30;100650.31;5050442;28;20505;-69
2023/07/02 01:50:07;;;;;;;31.38;12.80;;;18.90;99.90;;;19.20;61.48;100648.63;5054508;28;20128;-70
2023/07/02 01:52:37;;;;;;;27.10;12.45;;;18.90;99.90;;;19.33;60.94;100654.38;5054651;28;20498;-70
2023/07/02 01:55:06;;;;;;;26.63;12.90;;;19.00;99.90;;;19.36;60.39;100649.75;5054453;28;20052;-69
2023/07/02 01:57:34;;;;;;;32.85;12.73;;;19.00;99.90;;;19.32;61.09;100645.44;5051907;28;20045;-70
2023/07/02 02:00:04;;;;;;;31.13;12.65;;;19.00;99.90;;;19.23;61.09;100655.69;5053075;28;20048;-70
2023/07/02 02:02:43;;;;;;;32.28;12.75;;;19.00;99.90;;;19.14;61.30;100648.91;5050101;28;20449;-69
2023/07/02 02:05:11;;;;;;;29.60;13.52;;;18.80;99.90;;;19.04;62.26;100654.72;5053699;28;20144;-69
2023/07/02 02:07:42;;;;;;;29.45;12.85;;;18.70;99.90;;;19.18;61.15;100655.88;5054050;28;20383;-70
2023/07/02 02:10:11;;;;;;;31.47;12.97;;;18.80;99.90;;;19.25;61.30;100652.00;5054133;28;20091;-70
2023/07/02 02:12:40;;;;;;;30.33;13.20;;;18.90;99.90;;;19.12;61.11;100649.91;5051833;28;20700;-70
2023/07/02 02:15:09;;;;;;;30.63;13.27;;;18.80;99.90;;;19.06;61.75;100648.38;5054041;28;20053;-70
2023/07/02 02:17:37;;;;;;;30.42;12.60;;;18.70;99.90;;;18.76;62.05;100658.56;5053745;28;20549;-69
2023/07/02 02:20:08;;;;;;;27.95;13.43;;;18.50;99.90;;;18.83;62.07;100659.19;5052667;28;20057;-70
2023/07/02 02:22:37;;;;;;;31.55;13.52;;;18.50;99.90;;;18.91;62.40;100668.63;5050386;28;20090;-69
2023/07/02 02:25:08;;;;;;;30.05;12.30;;;18.50;99.90;;;18.92;62.39;100662.34;5053858;28;20456;-69
2023/07/02 02:27:36;;;;;;;28.13;13.02;;;18.60;99.90;;;18.97;63.34;100670.19;5069189;28;20045;-69
2023/07/02 02:30:07;;;;;;;27.30;13.23;;;18.60;99.90;;;18.28;62.93;100564.09;5052391;28;20402;-70
2023/07/02 02:32:37;;;;;;;31.20;12.90;;;18.50;99.90;;;18.91;62.86;100676.69;5051863;28;20104;-69
2023/07/02 02:35:09;;;;;;;29.63;12.93;;;18.60;99.90;;;18.83;63.52;100683.31;5049102;28;20049;-70
2023/07/02 02:37:40;;;;;;;31.77;14.20;;;18.50;99.90;;;18.53;64.36;100682.72;5048497;28;20075;-69
2023/07/02 02:40:11;;;;;;;;;;;18.30;99.90;;;18.56;65.27;100679.06;5061399;28;20431;-70
2023/07/02 02:42:41;;;;;;;31.95;13.32;;;18.20;99.90;;;18.54;65.88;100684.47;5052259;28;20288;-69
2023/07/02 02:45:10;;;;;;;32.78;13.45;;;18.20;99.90;;;18.43;66.07;100681.34;5060781;28;20049;-69
2023/07/02 02:47:39;;;;;;;28.67;12.88;;;18.10;99.90;;;18.32;67.41;100675.53;5067811;28;20046;-69
2023/07/02 02:50:09;;;;;;;28.05;13.30;;;18.00;99.90;;;18.25;67.53;100684.72;5052083;28;20485;-69
2023/07/02 02:52:38;;;;;;;31.05;12.50;;;17.90;99.90;;;18.25;67.48;100676.69;5052150;28;20516;-69
2023/07/02 02:55:10;;;;;;;34.75;13.48;;;17.90;99.90;;;18.17;68.03;100678.78;5049348;28;20053;-68
2023/07/02 02:57:38;;;;;;;31.80;13.40;;;17.80;99.90;;;18.19;68.39;100682.28;5050574;28;20068;-69
2023/07/02 03:00:09;;;;;;;29.73;13.32;;;17.80;99.90;;;18.26;67.12;100677.56;5051916;28;20110;-69
2023/07/02 03:02:37;;;;;;;41.60;13.30;;;17.90;99.90;;;18.18;68.07;100680.53;5050413;28;20522;-69
2023/07/02 03:05:07;;;;;;;38.13;13.52;;;17.90;99.90;;;18.03;67.97;100675.75;5051895;28;20493;-70
2023/07/02 03:07:36;;;;;;;33.85;13.43;;;17.80;99.90;;;18.27;67.22;100674.84;5051824;28;20049;-69
2023/07/02 03:10:05;;;;;;;34.08;13.02;;;17.90;99.90;;;18.31;67.04;100673.75;5053020;28;20040;-70
2023/07/02 03:12:35;;;;;;;31.57;12.37;;;17.90;99.90;;;18.36;67.04;100676.25;5051506;28;20055;-69
2023/07/02 03:15:04;;;;;;;30.17;12.82;;;18.00;99.90;;;18.24;66.42;100674.94;5049415;28;20395;-69
2023/07/02 03:17:32;;;;;;;28.25;11.65;;;17.90;99.90;;;18.08;66.54;100676.44;5052195;28;20564;-69
2023/07/02 03:20:01;;;;;;;32.55;13.18;;;17.80;99.90;;;18.16;66.05;100685.06;5052916;28;20051;-69
2023/07/02 03:22:31;;;;;;;30.33;12.93;;;17.80;99.90;;;18.20;66.07;100686.69;5052678;28;20044;-70
2023/07/02 03:24:59;;;;;;;29.20;11.90;;;17.80;99.90;;;18.10;66.25;100685.28;5052570;28;20045;-69
2023/07/02 03:27:28;;;;;;;28.33;12.45;;;17.80;99.90;;;18.16;65.50;100686.88;5050519;28;20517;-70
2023/07/02 03:29:58;;;;;;;28.38;12.27;;;17.80;99.90;;;18.28;64.80;100697.09;5052505;28;20077;-69
2023/07/02 03:32:26;;;;;;;35.72;13.57;;;17.90;99.90;;;18.17;65.23;100700.22;5052792;28;20441;-69
2023/07/02 03:34:55;;;;;;;28.17;12.35;;;17.80;99.90;;;18.19;65.05;100701.03;5052440;28;20049;-69
2023/07/02 03:37:23;;;;;;;29.65;11.88;;;17.80;99.90;;;18.00;64.75;100690.13;5048745;28;20137;-69
2023/07/02 03:39:51;;;;;;;35.65;11.98;;;17.80;99.90;;;18.06;65.97;100701.56;5052411;28;20533;-69
2023/07/02 03:42:20;;;;;;;36.47;11.50;;;17.70;99.90;;;18.09;65.97;100691.59;5052484;28;20037;-69
2023/07/02 03:44:48;;;;;;;28.55;11.70;;;17.80;99.90;;;18.14;65.16;100694.97;5052343;28;20037;-69
2023/07/02 03:47:19;;;;;;;28.52;10.90;;;17.80;99.90;;;17.90;65.27;100704.78;5052267;28;20429;-69
2023/07/02 03:49:48;;;;;;;23.30;10.95;;;17.70;99.90;;;17.89;65.86;100702.16;5052939;28;20077;-69
2023/07/02 03:52:16;;;;;;;23.38;11.05;;;17.60;99.90;;;17.96;65.65;100701.88;5052327;28;20048;-68
2023/07/02 03:54:45;;;;;;;26.45;11.23;;;17.60;99.90;;;17.91;65.86;100698.50;5052817;28;20037;-70
2023/07/02 03:57:13;;;;;;;26.20;11.10;;;17.60;99.90;;;17.86;66.35;100707.66;5052542;28;20049;-70
2023/07/02 03:59:41;;;;;;;28.23;11.82;;;17.50;99.90;;;17.90;66.37;100704.78;5047333;28;20873;-69
2023/07/02 04:02:10;;;;;;;27.05;11.65;;;17.60;99.90;;;17.93;65.90;100704.69;5048858;28;20551;-69
2023/07/02 04:04:39;;;;;;;27.02;10.70;;;17.60;99.90;;;17.86;65.74;100710.31;5052066;28;20112;-69
2023/07/02 04:07:08;;;;;;;24.63;11.00;;;17.60;99.90;;;17.67;65.70;100694.03;5052152;28;20084;-70
2023/07/02 04:09:36;;;;;;;22.95;10.85;;;17.50;99.90;;;17.87;66.42;100717.41;5052134;28;20059;-69
2023/07/02 04:12:06;;;;;;;26.75;11.98;;;17.50;99.90;;;17.80;67.03;100713.22;5052143;28;20045;-69
2023/07/02 04:14:34;;;;;;;28.83;11.23;;;17.50;99.90;;;17.85;66.25;100720.13;5051013;28;20136;-69
2023/07/02 04:17:04;;;;;;;26.98;11.35;;;17.60;99.90;;;17.83;66.67;100716.66;5052080;28;20056;-70
2023/07/02 04:19:32;;;;;;;26.88;11.65;;;17.50;99.90;;;17.98;66.32;100715.22;5052065;28;20405;-69
2023/07/02 04:22:02;;;;;;;25.75;11.07;;;17.60;99.90;;;17.98;66.24;100723.25;5052122;28;20143;-69
2023/07/02 04:24:31;;;;;;;28.13;11.63;;;17.60;99.90;;;17.96;66.81;100727.78;5048841;28;20137;-69
2023/07/02 04:27:00;;;;;;;27.30;11.20;;;17.70;99.90;;;17.94;66.68;100719.78;5052236;28;20045;-69
2023/07/02 04:29:49;;;;;;;24.20;11.15;;;17.60;99.90;;;18.00;67.31;100734.78;5052531;28;20049;-68
2023/07/02 04:32:17;;;;;;;25.70;11.10;;;17.60;99.90;;;18.08;67.49;100735.34;5056277;28;20068;-70
2023/07/02 04:34:45;;;;;;;27.50;11.45;;;17.70;99.90;;;17.94;67.74;100735.84;5055640;28;20049;-69
2023/07/02 04:37:16;;;;;;;26.42;10.40;;;17.60;99.90;;;18.13;67.78;100741.41;5055644;28;20041;-70
2023/07/02 04:39:44;;;;;;;24.98;10.85;;;17.80;99.90;;;17.96;68.64;100742.03;5055689;28;20143;-70
2023/07/02 04:42:14;;;;;;;24.42;10.85;;;17.70;99.90;;;17.80;68.96;100737.31;5055563;28;20045;-70
2023/07/02 04:44:43;;;;;;;22.40;10.18;;;17.50;99.90;;;17.92;68.95;100743.06;5056132;28;20458;-69
2023/07/02 04:47:12;;;;;;;22.55;10.52;;;17.50;99.90;;;17.95;68.53;100737.63;5054414;28;20095;-69
2023/07/02 04:49:40;;;;;;;27.52;11.07;;;17.60;99.90;;;17.92;68.58;100747.56;5055721;28;20040;-69
2023/07/02 04:52:09;;;;;;;27.08;10.65;;;17.60;99.90;;;18.01;67.95;100753.47;5054371;28;20062;-68
2023/07/02 04:54:38;;;;;;;25.92;10.50;;;17.70;99.90;;;18.03;68.42;100750.72;5055319;28;20045;-68
2023/07/02 04:57:07;;;;;;;27.88;10.63;;;17.70;99.90;;;17.96;68.03;100746.53;5054240;28;20049;-69
2023/07/02 04:59:35;;;;;;;25.65;10.27;;;17.70;99.90;;;18.13;67.93;100761.97;5055194;28;20064;-69
2023/07/02 05:02:04;;;;;;;22.58;10.00;;;17.80;99.90;;;17.98;68.20;100750.03;5055720;28;20055;-68
2023/07/02 05:04:32;;;;;;;25.73;10.13;;;17.80;99.90;;;17.98;67.61;100752.69;5055594;28;20119;-69
2023/07/02 05:07:01;;;;;;;23.38;10.60;;;17.70;99.90;;;17.92;68.65;100747.56;5062665;28;20557;-70
2023/07/02 05:09:29;;;;;;;25.73;10.50;;;17.60;99.90;;;17.99;68.41;100752.63;5054982;28;20114;-69
2023/07/02 05:11:59;;;;;;;23.30;9.85;;;17.60;99.90;;;18.09;68.83;100758.53;5055274;28;20075;-69
2023/07/02 05:14:27;;;;;;;24.30;11.38;;;17.80;99.90;;;18.11;67.60;100762.03;5054906;28;20084;-69
2023/07/02 05:16:56;;;;;;;24.40;11.35;;;17.80;99.90;;;18.18;67.92;100757.28;5051097;28;20073;-70
2023/07/02 05:19:24;;;;;;;24.15;9.45;;;17.80;99.90;;;18.18;67.95;100760.84;5054803;28;20049;-69
2023/07/02 05:21:52;;;;;;;26.88;10.18;;;17.90;99.90;;;18.27;67.80;100768.56;5055057;28;20080;-70
2023/07/02 05:24:21;;;;;;;21.42;10.60;;;18.00;99.90;;;18.47;67.40;100765.13;5054719;28;20044;-70
2023/07/02 05:26:50;;;;;;;26.25;10.55;;;18.10;99.90;;;18.45;66.68;100770.56;5055043;28;20500;-70
2023/07/02 05:29:20;;;;;;;25.40;11.40;;;18.10;99.90;;;18.45;67.14;100775.91;5054575;28;20072;-70
2023/07/02 05:31:48;;;;;;;25.40;10.38;;;18.10;99.90;;;18.36;67.53;100781.59;5054683;28;20516;-70
2023/07/02 05:34:17;;;;;;;26.75;11.30;;;18.10;99.90;;;18.21;68.37;100776.81;5054561;28;20049;-70
2023/07/02 05:36:46;;;;;;;23.13;10.68;;;18.00;99.90;;;18.20;68.03;100782.22;5054538;28;20087;-69
2023/07/02 05:39:14;;;;;;;25.20;10.65;;;17.90;99.90;;;18.18;67.95;100787.63;5049564;28;20044;-70
2023/07/02 05:41:43;;;;;;;27.70;11.32;;;17.90;99.90;;;18.16;67.26;100793.97;5049820;28;20144;-69
2023/07/02 05:44:11;;;;;;;24.50;10.32;;;17.90;99.90;;;18.08;66.49;100790.72;5053327;28;20072;-69
2023/07/02 05:46:41;;;;;;;20.10;9.98;;;17.80;99.90;;;18.04;67.46;100784.56;5054296;28;20375;-70
2023/07/02 05:49:09;;;;;;;27.07;11.10;;;17.80;99.90;;;18.10;67.57;100800.41;5054577;28;20041;-70
2023/07/02 05:51:37;;;;;;;25.30;9.90;;;17.80;99.90;;;18.08;67.24;100796.91;5054276;28;20048;-69
2023/07/02 05:54:06;;;;;;;24.85;9.65;;;17.80;99.90;;;17.99;67.68;100799.94;5054366;28;20406;-70
2023/07/02 05:56:34;;;;;;;20.50;10.05;;;17.80;99.90;;;18.21;67.41;100808.06;5052420;28;20491;-70
2023/07/02 05:59:02;;;;;;;24.63;10.15;;;17.90;99.90;;;18.16;67.52;100808.22;5054053;28;20045;-69
2023/07/02 06:01:31;;;;;;;24.15;10.88;;;17.90;99.90;;;18.34;67.13;100812.03;5054540;28;20053;-69
2023/07/02 06:04:01;;;;;;;20.83;10.10;;;18.00;99.90;;;18.44;66.44;100818.84;5069176;28;20080;-69
2023/07/02 06:06:29;;;;;;;24.52;10.10;;;18.10;99.90;;;18.42;65.86;100818.00;5044946;28;20450;-70
2023/07/02 06:08:57;;;;;;;25.50;10.10;;;18.20;99.90;;;18.56;66.82;100826.41;5054240;28;20151;-70
2023/07/02 06:11:26;;;;;;;30.25;10.85;;;18.20;99.90;;;18.78;66.99;100821.97;5054029;28;20041;-70
2023/07/02 06:13:55;;;;;;;25.45;10.75;;;18.40;99.90;;;18.73;66.19;100823.97;5054007;28;20449;-70
2023/07/02 06:16:23;;;;;;;22.52;10.27;;;18.40;99.90;;;18.75;66.91;100823.00;5053590;28;20041;-70
2023/07/02 06:18:51;;;;;;;26.30;10.25;;;18.40;99.90;;;18.58;67.36;100825.41;5053597;28;20045;-70
2023/07/02 06:21:21;;;;;;;21.58;10.02;;;18.30;99.90;;;18.48;66.01;100818.69;5053629;28;20555;-69
2023/07/02 06:23:50;;;;;;;22.40;9.17;;;18.20;99.90;;;18.58;64.37;100828.09;5053582;28;20383;-69
2023/07/02 06:26:18;;;;;;;23.50;10.55;;;18.30;99.90;;;18.52;64.41;100828.34;5053420;28;20291;-70
2023/07/02 06:28:46;;;;;;;22.63;10.20;;;18.20;99.90;;;18.60;65.26;100833.41;5053335;28;20132;-70
2023/07/02 06:31:14;;;;;;;20.77;9.43;;;18.30;99.90;;;18.89;65.03;100831.34;5050059;28;20131;-69
2023/07/02 06:33:43;;;;;;;22.73;10.27;;;18.50;99.90;;;18.64;63.70;100835.06;5053359;28;20049;-72
2023/07/02 06:36:13;;;;;;;26.02;10.35;;;18.40;99.90;;;19.03;64.20;100838.84;5053232;28;20490;-68
2023/07/02 06:38:46;;;;;;;25.70;10.20;;;18.60;99.90;;;19.06;62.83;100832.50;5052305;28;20106;-66
2023/07/02 06:41:16;;;;;;;20.70;9.68;;;18.70;99.90;;;19.29;63.78;100843.19;5053521;28;20128;-68
2023/07/02 06:43:44;;;;;;;22.10;9.68;;;18.90;99.90;;;19.56;64.01;100844.75;5053062;28;20501;-67
2023/07/02 06:46:13;;;;;;;23.08;10.07;;;19.20;99.90;;;19.44;62.79;100824.69;5052122;28;20520;-67
2023/07/02 06:48:41;;;;;;;21.73;10.13;;;19.30;99.90;;;19.32;62.12;100846.63;5049098;28;20501;-67
2023/07/02 06:51:12;;;;;;;26.30;9.10;;;19.10;99.90;;;19.36;62.53;100847.38;5053116;28;20413;-68
2023/07/02 06:53:40;;;;;;;21.35;9.65;;;19.10;99.90;;;19.35;61.03;100854.56;5052077;28;20071;-68
2023/07/02 06:56:10;;;;;;;24.85;10.07;;;19.10;99.90;;;19.23;60.69;100854.16;5053392;28;20087;-67
2023/07/02 06:58:41;;;;;;;25.58;10.32;;;19.00;99.90;;;19.12;60.74;100837.63;5052952;28;20037;-66
2023/07/02 07:01:09;;;;;;;20.75;10.25;;;19.00;99.90;;;19.24;60.99;100867.50;5052831;28;20037;-66
2023/07/02 07:03:38;;;;;;;20.95;9.80;;;19.00;99.90;;;19.23;60.85;100872.91;5052841;28;20187;-65
2023/07/02 07:06:06;;;;;;;23.45;9.88;;;18.90;99.90;;;19.32;61.03;100869.84;5052788;28;20402;-70
2023/07/02 07:08:38;;;;;;;23.90;10.15;;;19.00;99.90;;;19.48;60.66;100879.97;5052546;28;20048;-70
2023/07/02 07:11:06;;;;;;;23.45;9.57;;;19.20;99.90;;;19.50;59.82;100877.22;5049473;28;20049;-68
2023/07/02 07:13:36;;;;;;;20.23;8.82;;;19.30;99.90;;;19.43;58.70;100875.72;5052815;28;20052;-68
2023/07/02 07:16:05;;;;;;;21.47;9.87;;;19.20;99.90;;;19.43;58.68;100862.31;5052730;28;20106;-66
2023/07/02 07:18:33;;;;;;;22.48;9.02;;;19.20;99.90;;;19.43;58.60;100883.78;5052508;28;20457;-65
2023/07/02 07:21:01;;;;;;;23.52;9.75;;;19.20;99.90;;;19.47;58.45;100885.41;5052508;28;20041;-64
2023/07/02 07:23:30;;;;;;;17.73;8.57;;;19.30;99.90;;;19.53;58.47;100887.84;5052561;28;20075;-65
2023/07/02 07:25:58;;;;;;;20.38;9.45;;;19.30;99.90;;;19.57;58.96;100881.38;5052497;28;20095;-65
2023/07/02 07:28:27;;;;;;;19.70;9.60;;;19.30;99.90;;;19.54;59.04;100900.31;5052498;28;20418;-65
2023/07/02 07:30:56;;;;;;;20.42;9.18;;;19.30;99.90;;;19.53;59.37;100888.69;5052447;28;20049;-65
2023/07/02 07:33:25;;;;;;;28.15;9.73;;;19.30;99.90;;;19.74;59.75;100892.31;5039503;28;20077;-67
2023/07/02 07:35:54;;;;;;;18.88;8.80;;;19.40;99.90;;;20.03;59.79;100905.41;5052541;28;20044;-68
2023/07/02 07:38:22;;;;;;;19.58;9.77;;;19.70;99.90;;;19.83;58.88;100891.03;5052633;28;20090;-67
2023/07/02 07:40:50;;;;;;;22.45;9.45;;;19.70;99.90;;;19.91;58.29;100908.59;5052326;28;20076;-68
2023/07/02 07:43:19;;;;;;;20.17;9.35;;;19.70;99.90;;;19.77;58.62;100905.59;5052390;28;20049;-70
2023/07/02 07:45:47;;;;;;;19.55;8.93;;;19.50;99.90;;;19.72;58.71;100907.63;5052309;28;20076;-70
2023/07/02 07:48:17;;;;;;;18.42;8.73;;;19.50;99.90;;;19.86;58.24;100913.25;5052315;28;20049;-68
2023/07/02 07:50:46;;;;;;;16.08;8.73;;;19.60;99.90;;;20.14;58.76;100910.28;5052420;28;20040;-67
2023/07/02 07:53:14;;;;;;;21.13;9.32;;;19.80;99.90;;;20.44;58.13;100915.22;5052141;28;20493;-72
2023/07/02 07:55:43;;;;;;;21.08;9.35;;;20.10;99.90;;;20.55;57.05;100904.91;5048942;28;20102;-85
2023/07/02 07:58:11;;;;;;;18.48;9.02;;;20.20;99.90;;;20.53;56.26;100905.91;5052163;28;20056;-74
2023/07/02 08:00:40;;;;;;;19.92;9.13;;;20.20;99.90;;;20.52;55.60;100913.09;5052074;28;20486;-71
2023/07/02 08:03:08;;;;;;;19.42;9.10;;;20.30;99.90;;;20.63;56.24;100909.94;5053774;28;20076;-68
2023/07/02 08:05:38;;;;;;;21.60;9.07;;;20.30;99.90;;;20.67;56.74;100915.06;5056635;28;20095;-75
2023/07/02 08:08:08;;;;;;;25.23;9.87;;;20.40;99.90;;;20.82;57.00;100921.59;5056083;28;20045;-73
2023/07/02 08:10:36;;;;;;;17.58;8.07;;;20.50;99.90;;;20.66;55.17;100907.09;5056389;28;20297;-70
2023/07/02 08:13:05;;;;;;;16.55;7.53;;;20.50;99.90;;;20.53;54.54;100911.28;5056612;28;20037;-79
2023/07/02 08:15:33;;;;;;;16.65;8.85;;;20.30;99.90;;;20.44;53.88;100912.53;5056508;28;20045;-69
2023/07/02 08:18:03;;;;;;;14.75;8.25;;;20.20;99.90;;;20.50;53.33;100917.66;5056084;28;20049;-68
2023/07/02 08:20:32;;;;;;;18.02;8.00;;;20.20;99.90;;;20.39;53.51;100925.31;5052397;28;20053;-70
2023/07/02 08:23:01;;;;;;;17.88;7.85;;;20.20;99.90;;;20.38;53.87;100920.88;5055821;28;20037;-67
2023/07/02 08:25:31;;;;;;;18.10;8.13;;;20.10;99.90;;;20.26;53.68;100912.50;5056296;28;20095;-67
2023/07/02 08:28:01;;;;;;;;;;;20.10;99.90;;;20.24;54.73;100919.75;5056225;28;20429;-68
2023/07/02 08:30:30;;;;;;;21.20;8.35;;;20.00;99.90;;;20.22;56.07;100898.31;5055470;28;19920;-66
2023/07/02 08:32:59;;;;;;;23.17;9.73;;;20.10;99.90;;;20.43;57.36;100934.13;5055951;28;20041;-66
2023/07/02 08:35:28;;;;;;;18.90;9.25;;;20.10;99.90;;;20.30;55.46;100932.91;5055570;28;20037;-67
2023/07/02 08:37:59;;;;;;;15.85;7.82;;;20.00;99.90;;;20.21;55.98;100931.47;5055467;28;20116;-66
2023/07/02 08:40:29;;;;;;;18.95;8.88;;;20.00;99.90;;;20.25;56.79;100954.59;5052209;28;20040;-68
2023/07/02 08:42:57;;;;;;;14.65;8.40;;;20.00;99.90;;;20.25;57.50;100942.97;5055305;28;20045;-65
2023/07/02 08:45:29;;;;;;;16.20;7.07;;;19.90;99.90;;;20.25;54.82;100935.78;5055751;28;20060;-65
2023/07/02 08:47:58;;;;;;;17.52;7.45;;;20.00;99.90;;;20.18;54.32;100939.69;5055233;28;20048;-67
2023/07/02 08:50:26;;;;;;;13.10;6.60;;;19.90;99.90;;;20.21;55.25;100934.16;5055053;28;20383;-66
2023/07/02 08:52:55;;;;;;;13.00;7.13;;;20.00;99.90;;;20.39;54.86;100941.44;5055200;28;20053;-66
2023/07/02 08:55:24;;;;;;;15.25;7.07;;;20.10;99.90;;;20.58;55.26;100946.88;5055468;28;20052;-65
2023/07/02 08:58:00;;;;;;;12.63;6.78;;;20.30;99.90;;;20.75;56.13;100943.44;5050030;28;20056;-65
2023/07/02 09:00:30;;;;;;;15.85;7.32;;;20.40;99.90;;;21.03;56.23;100958.28;5054824;28;20056;-66
2023/07/02 09:02:59;;;;;;;14.93;7.00;;;20.70;99.90;;;21.25;55.48;100964.41;5054645;28;20375;-71
2023/07/02 09:05:27;;;;;;;20.00;8.02;;;20.90;99.90;;;21.32;55.04;100959.63;5055035;28;20041;-69
2023/07/02 09:07:56;;;;;;;12.40;6.63;;;21.00;99.90;;;21.00;52.88;100961.06;5054926;28;20052;-71
2023/07/02 09:10:30;;;;;;;14.02;6.75;;;20.80;99.90;;;21.00;52.77;100961.06;5054818;28;20056;-72
2023/07/02 09:13:07;;;;;;;14.60;6.88;;;20.70;99.90;;;21.04;52.08;100961.88;5051789;28;20379;-69
2023/07/02 09:15:40;;;;;;;10.77;6.18;;;20.80;99.90;;;20.90;52.40;100954.41;5053629;28;20037;-71
2023/07/02 09:18:19;;;;;;;15.88;7.18;;;20.80;99.90;;;21.28;53.36;100966.09;5054933;28;20060;-76
2023/07/02 09:20:51;;;;;;;17.80;7.20;;;20.90;99.90;;;21.61;53.92;100961.81;5051797;28;20126;-70
2023/07/02 09:23:19;;;;;;;14.07;6.97;;;21.30;99.90;;;21.69;52.76;100969.50;5055260;28;20434;-75
2023/07/02 09:25:48;;;;;;;13.80;6.53;;;21.40;99.90;;;21.72;52.10;100972.91;5055034;28;20033;-75
2023/07/02 09:28:21;;;;;;;25.73;7.70;;;21.50;99.90;;;21.93;51.44;100968.34;5054512;28;20049;-72
2023/07/02 09:30:55;;;;;;;19.60;7.70;;;21.70;99.90;;;22.01;51.20;100969.72;5053442;28;20483;-70
2023/07/02 09:33:25;;;;;;;16.13;7.22;;;21.70;99.90;;;22.22;51.38;100967.78;5051031;28;20120;-78
2023/07/02 09:35:54;;;;;;;16.70;6.90;;;21.90;99.90;;;22.29;51.43;100964.69;5054355;28;20037;-70
2023/07/02 09:38:23;;;;;;;16.98;7.70;;;22.00;99.90;;;22.18;49.71;100967.03;5054959;28;20048;-72
2023/07/02 09:40:53;;;;;;;12.10;6.43;;;22.00;99.90;;;22.43;50.63;100970.22;5054346;28;20049;-70
2023/07/02 09:43:23;;;;;;;13.82;6.68;;;22.10;99.90;;;22.68;49.91;100969.88;5052845;28;20620;-72
2023/07/02 09:45:55;;;;;;;11.82;6.82;;;22.40;99.90;;;22.70;49.58;100967.97;5054876;28;20056;-67
2023/07/02 09:48:26;;;;;;;14.70;6.72;;;22.30;99.90;;;22.72;48.56;100962.50;5050547;28;20041;-72
2023/07/02 09:50:56;;;;;;;11.50;6.57;;;22.40;99.90;;;22.80;49.52;100981.84;5054115;28;20033;-82
2023/07/02 09:53:24;;;;;;;11.53;6.53;;;22.40;99.90;;;22.76;47.11;100967.66;5054299;28;20457;-72
2023/07/02 09:55:53;;;;;;;12.73;6.30;;;22.40;99.90;;;22.90;46.39;100956.97;5054166;28;20708;-72
2023/07/02 09:58:23;;;;;;;11.23;6.50;;;22.50;99.90;;;22.88;47.49;100964.28;5054041;28;20060;-74
2023/07/02 10:00:51;;;;;;;14.45;6.38;;;22.60;99.90;;;23.12;47.15;100968.34;5054100;28;20052;-71
2023/07/02 10:03:30;;;;;;;11.57;6.65;;;22.80;99.90;;;22.89;44.84;100967.84;5053776;28;20081;-74
2023/07/02 10:06:06;;;;;;;10.35;6.38;;;22.60;99.90;;;22.62;43.65;100966.63;5051679;28;20076;-75
2023/07/02 10:08:36;;;;;;;12.55;6.80;;;22.40;99.90;;;22.55;44.79;100966.00;5053907;28;20049;-70
2023/07/02 10:11:12;;;;;;;11.02;6.63;;;22.30;99.90;;;22.51;45.40;100975.25;5054033;28;20048;-68